• Join FlightAware (Why Join?)
  • Login
  • US Flag GB Flag 
16:04 EDT


 

Airport Tracker/Info


-or-


 

Live Flight TrackerFlight Track Log ✈ UAL252 ✈ 05-May-2013 ✈ KDEN - KDFW

Flight Track Log - Related Links

Times and Time Zones

All times are in EDT time to prevent confusion due to time zone crossing. See the UAL252 flight status page for this flight to view local times or setup timezone preferences in your user account.

Time Position Orientation Groundspeed Altitude Reporting Facility
EDT Latitude Longitude Course Direction KTS MPH feet Rate Location/Type
18:30 39.9167 -104.6833 57° Northeast 173 199 6,700  Level Denver TRACON
18:31 39.9500 -104.6167 57° Northeast 220 253 8,000 1,500 Climbing Denver TRACON
18:32 39.9667 -104.5333 75° East 274 315 9,800 1,740 Climbing Denver TRACON
18:33 39.9167 -104.4167 119° Southeast 332 382 11,700 2,160 Climbing Denver TRACON
18:34 39.8667 -104.3333 128° Southeast 355 409 14,200 2,220 Climbing Denver TRACON
18:35 39.8250 -104.2528 124° Southeast 358 412 15,700 2,220 Climbing Denver Center
18:36 39.7533 -104.1136 124° Southeast 376 433 18,500 2,280 Climbing Denver Center
18:37 39.6939 -103.9969 123° Southeast 387 445 20,500 1,740 Climbing Denver Center
18:38 39.6317 -103.8742 123° Southeast 403 464 22,100 1,440 Climbing Denver Center
18:39 39.5767 -103.7458 119° Southeast 411 473 23,500 1,260 Climbing Denver Center
18:40 39.5478 -103.6258 107° East 413 475 24,700 1,320 Climbing Denver Center
18:42 39.4725 -103.3486 109° East 432 497 27,100 1,380 Climbing Kansas City Center
18:42 39.4536 -103.2736 108° East 444 511 27,600 900 Climbing Denver Center
18:43 39.4128 -103.1153 108° East 458 527 28,400 840 Climbing Denver Center
18:44 39.3678 -102.9528 110° East 474 545 29,400 900 Climbing Denver Center
18:45 39.3247 -102.7856 108° East 486 559 30,300 780 Climbing Denver Center
18:46 39.2878 -102.6503 109° East 497 572 31,000 300 Climbing Denver Center
18:47 39.2281 -102.4378 110° East 493 567 31,000  Level Denver Center
18:48 39.1839 -102.2753 109° East 500 575 31,000 660 Level Denver Center
18:49 39.1286 -102.0908 111° Southeast 495 570 32,400 1,260 Climbing Denver Center
18:50 39.0536 -101.9533 125° Southeast 489 563 33,600 1,200 Climbing Denver Center
18:51 38.9439 -101.8281 138° Southeast 473 544 34,900 960 Climbing Denver Center
18:52 38.8469 -101.7233 140° Southeast 473 544 35,600 720 Climbing Denver Center
18:53 38.7500 -101.6164 139° Southeast 478 550 36,500 660 Climbing Denver Center
18:54 38.6378 -101.4931 139° Southeast 477 549 37,000 240 Climbing Denver Center
18:55 38.5417 -101.3889 140° Southeast 476 548 37,000  Level Denver Center
18:57 38.4281 -101.2683 140° Southeast 475 547 37,000  Level Denver Center
18:58 38.3294 -101.1647 140° Southeast 478 550 37,000  Level Denver Center
18:59 38.2150 -101.0453 141° Southeast 476 548 37,000  Level Denver Center
19:01 37.9817 -100.8069 141° Southeast 480 552 37,000  Level Denver Center
19:01 37.9314 -100.7556 141° Southeast 481 554 37,000  Level Kansas City Center
19:02 37.8308 -100.6531 141° Southeast 480 552 37,000  Level Kansas City Center
19:03 37.7303 -100.5503 141° Southeast 480 552 37,000  Level Kansas City Center
19:04 37.6033 -100.4522 149° Southeast 477 549 37,000  Level Kansas City Center
19:05 37.4867 -100.3892 157° South 474 545 37,000  Level Kansas City Center
19:06 37.3514 -100.3169 157° South 472 543 37,000  Level Kansas City Center
19:07 37.2356 -100.2553 157° South 472 543 37,000  Level Kansas City Center
19:09 37.1194 -100.1942 157° South 471 542 37,000  Level Kansas City Center
19:10 36.9853 -100.1225 157° South 470 541 37,000  Level Kansas City Center
19:11 36.8692 -100.0614 157° South 471 542 37,000  Level Kansas City Center
19:12 36.7353 -99.9892 157° South 470 541 37,000  Level Kansas City Center
19:13 36.6206 -99.9272 157° South 469 540 37,000  Level Kansas City Center
19:14 36.4856 -99.8561 157° South 470 541 37,000  Level Kansas City Center
19:15 36.3689 -99.7967 158° South 472 543 37,000  Level Kansas City Center
19:16 36.2322 -99.7256 157° South 475 547 37,000  Level Kansas City Center
19:17 36.1167 -99.6678 158° South 470 541 37,000 -300 Level Kansas City Center
19:19 35.8944 -99.5553 158° South 472 543 36,300 -540 Descending Fort Worth Center
19:19 35.8628 -99.5344 152° Southeast 468 539 35,900 -1,020 Descending Kansas City Center
19:20 35.7428 -99.4722 157° South 466 536 35,000 -480 Descending Kansas City Center
19:21 35.6236 -99.4108 157° South 467 537 35,000  Level Kansas City Center
19:22 35.5450 -99.3728 158° South 478 550 35,000  Level Fort Worth Center
19:23 35.4272 -99.3139 158° South 466 536 35,000  Level Fort Worth Center
19:24 35.3050 -99.2528 158° South 471 542 35,000  Level Fort Worth Center
19:25 35.1828 -99.1917 158° South 476 548 35,000  Level Fort Worth Center
19:26 35.0628 -99.1258 156° South 471 542 35,000  Level Fort Worth Center
19:27 34.9556 -99.0322 144° Southeast 471 542 35,000  Level Fort Worth Center
19:28 34.8400 -98.9289 144° Southeast 471 542 35,000  Level Fort Worth Center
19:29 34.7450 -98.8439 144° Southeast 477 549 35,000 -300 Level Fort Worth Center
19:30 34.6211 -98.7433 146° Southeast 477 549 34,500 -780 Descending Fort Worth Center
19:31 34.5136 -98.6508 145° Southeast 482 555 33,500 -1,020 Descending Fort Worth Center
19:32 34.4039 -98.5614 146° Southeast 482 555 32,500 -960 Descending Fort Worth Center
19:33 34.3003 -98.4694 144° Southeast 482 555 31,600 -960 Descending Fort Worth Center
19:34 34.1967 -98.3828 145° Southeast 470 541 30,600 -900 Descending Fort Worth Center
19:35 34.1136 -98.3142 146° Southeast 465 535 29,800 -960 Descending Fort Worth Center
19:36 33.9914 -98.2025 143° Southeast 460 529 28,700 -2,040 Descending Fort Worth Center
19:37 33.9000 -98.1267 145° Southeast 455 524 25,700 -3,060 Descending Fort Worth Center
19:38 33.7897 -98.0358 146° Southeast 467 537 22,600 -2,880 Descending Fort Worth Center
19:39 33.6756 -97.9378 144° Southeast 475 547 20,100 -2,580 Descending Fort Worth Center
19:40 33.5756 -97.8547 145° Southeast 455 524 17,400 -2,340 Descending Fort Worth Center
19:41 33.4944 -97.7722 140° Southeast 436 502 15,400 -1,980 Descending Fort Worth Center
19:42 33.4031 -97.6672 136° Southeast 416 479 13,500 -1,920 Descending Fort Worth Center
19:43 33.3239 -97.5750 136° Southeast 395 455 11,700 -1,320 Descending Fort Worth Center
19:44 33.2550 -97.4906 134° Southeast 390 449 10,900 -360 Descending Fort Worth Center
19:45 33.1694 -97.3936 137° Southeast 390 449 11,000  Climbing Fort Worth Center
19:46 33.1047 -97.3142 134° Southeast 375 432 10,900  Descending Fort Worth Center
19:47 33.0317 -97.2275 135° Southeast 349 402 11,000  Climbing Fort Worth Center
19:48 32.9772 -97.1756 141° Southeast 302 348 11,000 -600 Level Fort Worth Center
19:49 32.8917 -97.1711 178° South 270 311 9,800 -1,440 Descending Fort Worth Center
19:50 32.8247 -97.1711 180° South 270 311 8,100 -1,680 Descending Fort Worth Center
19:51 32.7475 -97.1614 174° South 263 303 6,500 -1,740 Descending Fort Worth Center
19:52 32.7267 -97.1072 115° Southeast 205 236 4,700 -1,980 Descending Fort Worth Center
19:52 32.7333 -97.0833 72° East 179 206 3,600 -1,500 Descending Dallas / Fort Worth TRACON
19:53 32.7833 -97.0500 29° Northeast 172 198 2,500 -1,020 Descending Dallas / Fort Worth TRACON
19:54 32.8333 -97.0500 360° North 138 159 1,600 -840 Descending Dallas / Fort Worth TRACON
19:55 32.8667 -97.0500 360° North 134 154 1,000 -660 Descending Dallas / Fort Worth TRACON